Time;durP1;ratioP1;P1;durP2;ratioP2;P2;SDS_P1;SDS_P2;PMS_P1;PMS_P2;Temp;Humidity;BMP_temperature;BMP_pressure;BME280_temperature;BME280_humidity;BME280_pressure;Samples;Min_cycle;Max_cycle;Signal;HPM_P1;HPM_P2
2021/06/12 00:01:49;;;;;;;;;7.00;6.50;;;;;23.83;51.81;101403.72;4897773;29;46716;-79
2021/06/12 00:04:14;;;;;;;;;6.00;5.25;;;;;23.73;51.79;101383.53;4897914;29;45709;-78
2021/06/12 00:10:05;;;;;;;;;5.00;4.25;;;;;23.75;52.31;101394.91;4898408;29;45687;-77
2021/06/12 00:12:31;;;;;;;;;6.00;5.00;;;;;23.74;52.60;101398.59;4898583;29;48784;-79
2021/06/12 00:14:56;;;;;;;;;4.50;4.25;;;;;23.64;52.38;101385.44;4898165;29;47327;-79
2021/06/12 00:17:22;;;;;;;;;3.25;3.00;;;;;23.65;52.19;101396.94;4898294;29;45607;-79
2021/06/12 00:19:47;;;;;;;;;3.25;3.00;;;;;23.64;52.66;101412.19;4898959;29;45861;-78
2021/06/12 00:22:13;;;;;;;;;2.75;2.50;;;;;23.59;52.52;101411.84;4898798;29;46407;-78
2021/06/12 00:24:38;;;;;;;;;3.00;3.00;;;;;23.48;51.98;101398.03;4881362;29;46053;-77
2021/06/12 00:27:04;;;;;;;;;2.00;2.00;;;;;23.42;52.62;101391.50;4898350;29;45972;-77
2021/06/12 00:29:29;;;;;;;;;3.00;3.00;;;;;23.45;52.45;101391.16;4898486;29;45821;-77
2021/06/12 00:31:55;;;;;;;;;2.00;2.00;;;;;23.49;52.53;101405.88;4898118;29;46025;-78
2021/06/12 00:34:20;;;;;;;;;2.50;2.50;;;;;23.47;52.04;101412.41;4898342;29;45645;-78
2021/06/12 00:40:10;;;;;;;;;2.00;1.00;;;;;23.36;52.44;101418.94;4898024;28;45744;-78
2021/06/12 00:42:37;;;;;;;;;1.00;1.00;;;;;23.32;51.82;101420.31;4898611;29;45615;-78
2021/06/12 00:45:06;;;;;;;;;1.00;1.00;;;;;23.28;52.02;101424.31;4898097;29;45889;-78
2021/06/12 00:47:31;;;;;;;;;2.00;2.00;;;;;23.23;52.40;101418.63;4898299;29;45579;-76
2021/06/12 00:49:57;;;;;;;;;1.25;1.25;;;;;23.19;51.68;101430.69;4881280;29;45700;-77
2021/06/12 00:55:45;;;;;;;;;1.50;1.50;;;;;23.08;51.93;101429.22;4898381;29;45873;-78
2021/06/12 00:58:13;;;;;;;;;2.50;1.50;;;;;23.03;51.97;101423.53;4902351;29;45729;-79
2021/06/12 01:00:38;;;;;;;;;1.00;1.00;;;;;22.98;51.76;101425.88;4904860;29;45808;-77
2021/06/12 01:03:05;;;;;;;;;1.25;1.25;;;;;22.92;52.59;101421.22;4887537;29;47355;-77
2021/06/12 01:05:30;;;;;;;;;0.50;0.50;;;;;22.86;51.78;101416.53;4904598;29;45827;-78
2021/06/12 01:07:56;;;;;;;;;1.00;1.00;;;;;22.73;51.99;101400.19;4903209;29;45693;-77
2021/06/12 01:10:21;;;;;;;;;1.00;1.00;;;;;22.84;52.38;101421.22;4898194;29;45613;-78
2021/06/12 01:13:16;;;;;;;;;1.00;1.00;;;;;22.81;52.17;101413.53;4898248;29;46531;-78
2021/06/12 01:15:52;;;;;;;;;1.00;1.00;;;;;22.78;51.99;101409.34;4893667;29;46142;-78
2021/06/12 01:18:21;;;;;;;;;1.00;1.00;;;;;22.72;52.08;101404.72;4897528;29;45603;-78
2021/06/12 01:21:06;;;;;;;;;1.50;1.50;;;;;22.76;51.35;101416.72;4897899;29;45649;-78
2021/06/12 01:23:50;;;;;;;;;0.25;0.25;;;;;22.74;51.66;101407.19;4897021;29;46409;-79
2021/06/12 01:26:43;;;;;;;;;1.25;0.00;;;;;22.74;51.52;101397.34;4897814;29;45696;-78
2021/06/12 01:29:17;;;;;;;;;1.00;0.00;;;;;22.74;51.94;101400.03;4897800;29;45660;-78
2021/06/12 01:31:44;;;;;;;;;0.75;0.00;;;;;22.73;51.48;101405.53;4897770;29;45707;-78
2021/06/12 01:34:09;;;;;;;;;0.75;0.75;;;;;22.55;51.35;101381.66;4897497;29;45516;-79
2021/06/12 01:36:35;;;;;;;;;1.00;1.00;;;;;22.60;52.02;101403.34;4897639;29;46051;-78
2021/06/12 01:39:03;;;;;;;;;2.00;1.00;;;;;22.50;51.54;101400.84;4897342;29;45525;-78
2021/06/12 01:41:31;;;;;;;;;1.50;1.00;;;;;22.53;51.70;101421.03;4898034;29;45763;-77
2021/06/12 01:43:58;;;;;;;;;2.00;1.25;;;;;22.46;52.16;101415.53;4897195;29;46508;-77
2021/06/12 01:46:24;;;;;;;;;1.00;1.00;;;;;22.41;52.20;101415.19;4897188;29;45619;-78
2021/06/12 01:48:51;;;;;;;;;2.00;2.00;;;;;22.34;52.04;101408.03;4896616;29;45642;-78
2021/06/12 01:51:18;;;;;;;;;1.00;1.00;;;;;22.33;52.36;101411.69;4896948;29;45789;-78
2021/06/12 01:53:45;;;;;;;;;1.75;1.75;;;;;22.23;52.54;101409.19;4896282;29;46547;-79
2021/06/12 01:56:13;;;;;;;;;1.00;1.00;;;;;22.23;52.62;101411.84;4896265;29;46134;-78
2021/06/12 01:58:42;;;;;;;;;1.00;1.00;;;;;22.17;52.20;101401.81;4878976;29;45687;-77
2021/06/12 02:01:12;;;;;;;;;1.00;1.00;;;;;22.17;52.88;101407.16;4896594;29;45978;-79
2021/06/12 02:03:40;;;;;;;;;1.00;1.00;;;;;22.12;52.61;101414.84;4896290;29;46258;-79
2021/06/12 02:06:10;;;;;;;;;3.75;2.00;;;;;21.93;52.93;101396.41;4878897;29;46340;-78
2021/06/12 02:08:40;;;;;;;;;1.00;1.00;;;;;21.96;53.00;101407.63;4895706;29;45829;-78
2021/06/12 02:11:05;;;;;;;;;1.25;1.00;;;;;21.67;53.15;101380.50;4879338;29;45623;-78
2021/06/12 02:13:31;;;;;;;;;1.00;1.00;;;;;21.53;53.06;101375.78;4895834;29;45663;-78
2021/06/12 02:15:58;;;;;;;;;1.00;1.00;;;;;21.80;53.22;101428.06;4896008;29;46333;-78
2021/06/12 02:18:26;;;;;;;;;1.00;1.00;;;;;21.74;53.19;101426.88;4895943;29;45703;-78
2021/06/12 02:20:53;;;;;;;;;1.00;1.00;;;;;21.70;53.11;101431.66;4896034;29;45603;-78
2021/06/12 02:23:19;;;;;;;;;1.75;1.25;;;;;21.61;53.43;101434.47;4895867;29;46572;-78
2021/06/12 02:25:48;;;;;;;;;1.00;1.00;;;;;21.53;53.75;101426.47;4896331;29;45804;-79
2021/06/12 02:28:16;;;;;;;;;1.00;1.00;;;;;21.55;54.06;101443.13;4898829;29;45970;-79
2021/06/12 02:30:48;;;;;;;;;1.00;1.00;;;;;21.49;53.98;101436.59;4899234;29;45640;-78
2021/06/12 02:33:17;;;;;;;;;2.00;2.00;;;;;21.26;54.10;101415.00;4899368;29;46337;-78
2021/06/12 02:35:43;;;;;;;;;1.25;1.25;;;;;21.33;54.09;101431.16;4899235;29;46212;-78
2021/06/12 02:41:30;;;;;;;;;1.00;1.00;;;;;21.25;55.08;101439.13;4897249;29;45770;-79
2021/06/12 02:43:55;;;;;;;;;1.00;1.00;;;;;21.22;55.40;101450.94;4898388;29;46341;-80
2021/06/12 02:46:26;;;;;;;;;1.00;1.00;;;;;21.13;55.44;101451.00;4899324;29;45760;-79
2021/06/12 02:48:59;;;;;;;;;1.00;1.00;;;;;21.04;55.61;101436.81;4899125;29;45657;-77
2021/06/12 02:51:28;;;;;;;;;1.00;1.00;;;;;20.86;55.56;101428.84;4899927;29;45652;-79
2021/06/12 02:53:57;;;;;;;;;0.00;0.00;;;;;20.93;55.40;101443.25;4899057;29;47442;-77
2021/06/12 02:56:24;;;;;;;;;1.00;1.00;;;;;20.80;55.38;101423.31;4900429;29;45995;-78
2021/06/12 02:58:52;;;;;;;;;1.00;1.00;;;;;20.78;55.27;101422.66;4903684;29;45702;-79
2021/06/12 03:01:19;;;;;;;;;1.00;1.00;;;;;20.78;55.23;101418.13;4904372;29;45811;-80
2021/06/12 03:03:46;;;;;;;;;0.25;0.25;;;;;20.83;55.16;101425.69;4904756;29;46419;-79
2021/06/12 03:06:13;;;;;;;;;1.00;1.00;;;;;20.77;55.07;101416.47;4904554;29;45988;-79
2021/06/12 03:08:48;;;;;;;;;0.00;0.00;;;;;20.83;55.32;101431.00;4900691;29;45655;-79
2021/06/12 03:11:15;;;;;;;;;1.00;0.00;;;;;20.82;55.08;101430.16;4899172;29;45609;-79
2021/06/12 03:13:46;;;;;;;;;1.25;0.00;;;;;20.81;54.82;101432.97;4898221;29;46382;-79
2021/06/12 03:16:14;;;;;;;;;0.25;0.25;;;;;20.78;54.91;101433.31;4898660;29;46584;-79
2021/06/12 03:18:46;;;;;;;;;1.00;0.00;;;;;20.78;55.05;101425.31;4900344;29;45894;-79
2021/06/12 03:21:12;;;;;;;;;0.00;0.00;;;;;20.64;54.92;101409.88;4898550;29;45822;-79
2021/06/12 03:27:01;;;;;;;;;1.00;0.50;;;;;20.70;54.95;101433.22;4897511;29;46286;-78
2021/06/12 03:29:27;;;;;;;;;1.00;1.00;;;;;20.65;55.17;101422.19;4898229;29;45843;-78
2021/06/12 03:31:54;;;;;;;;;0.00;0.00;;;;;20.69;55.29;101429.72;4897703;29;45956;-78
2021/06/12 03:34:20;;;;;;;;;1.25;1.25;;;;;20.67;54.99;101434.38;4897825;29;46873;-79
2021/06/12 03:36:46;;;;;;;;;2.00;0.50;;;;;20.55;55.17;101418.78;4897363;29;45635;-79
2021/06/12 03:39:12;;;;;;;;;1.00;1.00;;;;;20.62;55.18;101438.50;4897080;29;45495;-78
2021/06/12 03:41:37;;;;;;;;;1.00;1.00;;;;;20.59;55.06;101436.97;4897621;29;45601;-78
2021/06/12 03:44:04;;;;;;;;;1.00;1.00;;;;;20.58;55.29;101447.75;4898075;29;46521;-79
2021/06/12 03:46:30;;;;;;;;;1.00;1.00;;;;;20.47;55.45;101433.69;4897163;29;47217;-78
2021/06/12 03:48:55;;;;;;;;;3.00;1.50;;;;;20.45;55.69;101430.38;4897625;29;45835;-80
2021/06/12 03:51:21;;;;;;;;;2.00;2.00;;;;;20.49;56.10;101445.03;4898097;29;45700;-79
2021/06/12 03:57:08;;;;;;;;;2.00;2.00;;;;;20.34;56.55;101454.56;4897087;29;45877;-78
2021/06/12 03:59:33;;;;;;;;;3.00;3.00;;;;;20.29;56.98;101443.50;4897360;29;45786;-77
2021/06/12 04:02:00;;;;;;;;;2.00;2.00;;;;;20.21;56.79;101446.06;4897009;29;45730;-78
2021/06/12 04:04:27;;;;;;;;;4.75;3.75;;;;;20.13;56.65;101446.78;4897149;29;47520;-79
2021/06/12 04:06:53;;;;;;;;;4.25;3.50;;;;;20.04;57.48;101436.22;4897186;29;46148;-77
2021/06/12 04:09:18;;;;;;;;;1.25;1.25;;;;;20.10;57.81;101459.56;4897800;29;45512;-79
2021/06/12 04:11:44;;;;;;;;;2.75;2.00;;;;;20.02;57.07;101449.69;4897717;29;45521;-79
2021/06/12 04:14:09;;;;;;;;;3.50;3.50;;;;;19.99;57.98;101465.94;4897408;29;47530;-78
2021/06/12 04:16:35;;;;;;;;;4.00;3.00;;;;;19.99;57.70;101459.78;4896963;29;45958;-78
2021/06/12 04:19:01;;;;;;;;;4.50;4.00;;;;;19.86;57.47;101443.34;4897593;29;45675;-78
2021/06/12 04:21:27;;;;;;;;;3.50;3.00;;;;;19.82;57.69;101437.47;4897362;29;45728;-79
2021/06/12 04:27:13;;;;;;;;;2.50;2.50;;;;;19.85;58.17;101452.31;4896948;29;45780;-79
2021/06/12 04:29:39;;;;;;;;;3.00;3.00;;;;;19.81;57.93;101462.38;4879982;29;46067;-79
2021/06/12 04:32:04;;;;;;;;;3.75;3.00;;;;;19.80;57.92;101460.75;4897644;29;45956;-79
2021/06/12 04:34:30;;;;;;;;;3.00;3.00;;;;;19.75;57.43;101447.03;4879729;29;48217;-79
2021/06/12 04:36:55;;;;;;;;;3.00;3.00;;;;;19.85;58.35;101457.63;4897046;29;45578;-80
2021/06/12 04:39:21;;;;;;;;;2.00;1.00;;;;;19.85;58.04;101460.28;4897155;29;45980;-78
2021/06/12 04:41:46;;;;;;;;;4.00;4.00;;;;;19.78;57.94;101452.06;4897422;29;45707;-79
2021/06/12 04:44:12;;;;;;;;;3.75;3.50;;;;;19.84;57.91;101461.28;4896911;29;45596;-80
2021/06/12 04:46:39;;;;;;;;;3.50;3.50;;;;;19.80;58.00;101455.41;4896860;29;46021;-79
2021/06/12 04:49:05;;;;;;;;;3.00;3.00;;;;;19.85;57.76;101462.94;4896998;29;45657;-78
2021/06/12 04:51:30;;;;;;;;;2.00;2.00;;;;;19.76;57.82;101450.53;4897736;29;45689;-79
2021/06/12 04:57:18;;;;;;;;;4.75;3.75;;;;;19.83;58.77;101467.56;4896868;29;46276;-78
2021/06/12 04:59:43;;;;;;;;;5.00;4.75;;;;;19.75;58.83;101468.31;4897540;29;45778;-79
2021/06/12 05:02:09;;;;;;;;;4.00;3.00;;;;;19.77;58.51;101481.44;4897567;29;45695;-78
2021/06/12 05:04:35;;;;;;;;;3.75;3.50;;;;;19.67;58.66;101471.69;4898491;29;45681;-78
2021/06/12 05:07:00;;;;;;;;;5.25;4.25;;;;;19.68;58.64;101473.38;4899728;29;46034;-78
2021/06/12 05:09:26;;;;;;;;;3.75;3.75;;;;;19.65;59.22;101467.50;4899409;29;45734;-78
2021/06/12 05:11:51;;;;;;;;;4.00;3.75;;;;;19.63;58.67;101472.16;4900334;29;45638;-79
2021/06/12 05:14:18;;;;;;;;;2.50;2.50;;;;;19.59;58.78;101468.97;4899270;29;45689;-78
2021/06/12 05:16:43;;;;;;;;;3.50;3.25;;;;;19.63;58.48;101477.47;4898816;29;45542;-79
2021/06/12 05:19:09;;;;;;;;;3.50;3.50;;;;;19.46;59.23;101443.66;4897962;29;45589;-77
2021/06/12 05:21:39;;;;;;;;;3.50;2.75;;;;;19.64;58.80;101465.84;4897093;29;45585;-79
2021/06/12 05:27:26;;;;;;;;;3.25;3.25;;;;;19.66;59.11;101469.19;4896346;29;45788;-79
2021/06/12 05:29:51;;;;;;;;;3.00;2.50;;;;;19.68;58.72;101465.41;4896907;29;45711;-78
2021/06/12 05:32:17;;;;;;;;;6.25;4.50;;;;;19.70;58.96;101460.75;4896903;29;45662;-79
2021/06/12 05:34:42;;;;;;;;;3.00;2.25;;;;;19.73;59.09;101459.66;4896242;29;46602;-78
2021/06/12 05:37:09;;;;;;;;;4.25;4.00;;;;;19.67;58.96;101441.63;4896948;29;45889;-79
2021/06/12 05:42:56;;;;;;;;;2.00;2.00;;;;;19.84;58.91;101466.59;4894161;29;45725;-78
2021/06/12 05:45:22;;;;;;;;;2.75;2.00;;;;;19.88;58.22;101468.78;4896083;29;46523;-79
2021/06/12 05:47:48;;;;;;;;;2.50;2.25;;;;;19.90;58.83;101463.34;4896106;29;46139;-79
2021/06/12 05:50:13;;;;;;;;;2.50;2.00;;;;;19.90;58.33;101471.31;4878973;29;45773;-80
2021/06/12 05:52:39;;;;;;;;;3.00;3.00;;;;;19.95;58.74;101471.72;4896469;29;45829;-80
2021/06/12 05:55:05;;;;;;;;;3.50;3.00;;;;;19.95;58.34;101472.56;4895798;29;45694;-80
2021/06/12 05:57:30;;;;;;;;;4.25;3.25;;;;;19.98;58.70;101472.25;4895723;29;45791;-78
2021/06/12 05:59:56;;;;;;;;;2.50;2.25;;;;;20.02;58.71;101480.78;4895995;29;45625;-79
2021/06/12 06:02:21;;;;;;;;;2.75;2.75;;;;;20.04;58.64;101482.28;4898970;29;45676;-77
2021/06/12 06:04:47;;;;;;;;;3.75;3.00;;;;;20.05;58.77;101491.13;4899793;29;45654;-80
2021/06/12 06:07:13;;;;;;;;;2.00;2.00;;;;;20.05;58.62;101480.47;4899400;29;46161;-79
2021/06/12 06:13:03;;;;;;;;;1.75;1.75;;;;;20.01;58.57;101479.09;4898715;29;45581;-79
2021/06/12 06:15:29;;;;;;;;;2.25;2.25;;;;;19.99;58.86;101481.06;4899152;29;46271;-79
2021/06/12 06:17:54;;;;;;;;;1.75;1.75;;;;;20.02;58.28;101486.09;4899208;29;45817;-80
2021/06/12 06:20:20;;;;;;;;;1.75;1.75;;;;;20.02;58.71;101481.63;4899212;29;45631;-79
2021/06/12 06:22:45;;;;;;;;;2.75;2.50;;;;;19.95;58.79;101472.56;4898846;29;45662;-77
2021/06/12 06:25:11;;;;;;;;;2.25;1.75;;;;;20.03;58.78;101488.59;4899164;29;45779;-79
2021/06/12 06:27:37;;;;;;;;;3.00;2.50;;;;;20.08;58.52;101486.31;4898511;29;45730;-79
2021/06/12 06:30:05;;;;;;;;;2.00;2.00;;;;;20.13;58.69;101489.38;4898747;29;45737;-78
2021/06/12 06:32:30;;;;;;;;;2.50;2.00;;;;;20.16;58.70;101490.06;4899443;29;45634;-80
2021/06/12 06:34:56;;;;;;;;;3.00;3.00;;;;;20.18;58.22;101494.28;4899039;29;46429;-78
2021/06/12 06:37:22;;;;;;;;;3.00;3.00;;;;;20.13;58.83;101481.38;4899110;29;45747;-80
2021/06/12 06:43:11;;;;;;;;;4.00;3.50;;;;;20.26;58.30;101504.16;4898160;28;45814;-80
2021/06/12 06:45:37;;;;;;;;;2.25;2.25;;;;;20.19;58.51;101492.44;4899004;29;46797;-78
2021/06/12 06:48:03;;;;;;;;;3.25;2.00;;;;;20.30;58.36;101517.00;4898425;29;46084;-78
2021/06/12 06:50:29;;;;;;;;;2.00;2.00;;;;;20.25;58.87;101502.47;4898721;29;45655;-79
2021/06/12 06:52:54;;;;;;;;;1.25;1.25;;;;;20.28;58.36;101505.69;4898809;29;45631;-79
2021/06/12 06:55:20;;;;;;;;;2.00;2.00;;;;;20.26;58.27;101507.66;4898191;29;46375;-79
2021/06/12 06:57:45;;;;;;;;;3.50;3.00;;;;;20.34;58.61;101520.25;4898483;29;45747;-79
2021/06/12 07:00:15;;;;;;;;;4.00;3.00;;;;;20.27;58.29;101500.50;4898484;29;45676;-83
2021/06/12 07:02:40;;;;;;;;;4.25;4.00;;;;;20.35;58.19;101516.63;4899336;29;45698;-81
2021/06/12 07:05:06;;;;;;;;;3.75;3.75;;;;;20.23;58.65;101497.31;4881543;29;48302;-80
2021/06/12 07:07:31;;;;;;;;;5.00;3.75;;;;;20.37;58.26;101515.47;4898424;29;45732;-80
2021/06/12 07:13:20;;;;;;;;;3.50;3.50;;;;;20.43;58.28;101504.22;4900675;29;45939;-83
2021/06/12 07:15:46;;;;;;;;;3.00;3.00;;;;;20.48;58.21;101517.91;4902801;29;46718;-85
2021/06/12 07:18:11;;;;;;;;;4.75;3.25;;;;;20.41;58.42;101508.00;4900382;29;46078;-82
2021/06/12 07:20:37;;;;;;;;;5.25;4.00;;;;;20.51;58.15;101524.78;4884516;29;45631;-84
2021/06/12 07:23:02;;;;;;;;;3.50;3.50;;;;;20.35;58.27;101488.13;4903548;29;45823;-84
2021/06/12 07:25:28;;;;;;;;;5.00;4.75;;;;;20.55;58.22;101523.47;4885693;29;48614;-85
2021/06/12 07:27:53;;;;;;;;;6.00;5.25;;;;;20.49;58.27;101516.09;4906342;29;46554;-84
2021/06/12 07:30:19;;;;;;;;;4.75;4.50;;;;;20.61;58.21;101546.00;4907510;29;45398;-85
2021/06/12 07:32:45;;;;;;;;;4.25;4.00;;;;;20.65;58.44;101548.19;4906520;29;45798;-82
2021/06/12 07:35:11;;;;;;;;;7.00;6.25;;;;;20.51;58.15;101543.41;4905223;29;46356;-83
2021/06/12 07:37:36;;;;;;;;;6.00;5.00;;;;;20.44;58.27;101529.00;4888779;29;47644;-82
2021/06/12 07:43:25;;;;;;;;;9.25;6.25;;;;;20.59;58.79;101564.78;4898585;29;45756;-80
2021/06/12 07:45:50;;;;;;;;;8.00;7.25;;;;;20.61;58.76;101572.63;4898742;29;45670;-82
2021/06/12 07:48:17;;;;;;;;;12.25;9.25;;;;;20.61;59.12;101589.44;4898385;29;45990;-81
2021/06/12 07:50:44;;;;;;;;;8.25;8.25;;;;;20.48;59.11;101568.50;4898760;29;45751;-81
2021/06/12 07:59:15;;;;;;;;;12.00;10.00;;;;;20.60;58.56;101581.59;4898281;29;45937;-82
2021/06/12 08:01:41;;;;;;;;;9.00;8.25;;;;;20.63;58.52;101592.78;4898743;29;45563;-82
2021/06/12 08:04:07;;;;;;;;;9.75;9.00;;;;;20.61;58.96;101594.78;4898489;29;45763;-82
2021/06/12 08:06:32;;;;;;;;;9.75;8.50;;;;;20.51;58.67;101570.03;4897383;29;45648;-80
2021/06/12 08:08:58;;;;;;;;;7.50;7.50;;;;;20.52;58.36;101575.19;4897509;29;46040;-80
2021/06/12 08:11:24;;;;;;;;;8.00;8.00;;;;;20.45;58.33;101566.16;4897419;29;45811;-82
2021/06/12 08:13:50;;;;;;;;;8.50;7.50;;;;;20.47;58.49;101573.97;4897855;29;45667;-80
2021/06/12 08:16:16;;;;;;;;;8.75;8.00;;;;;20.55;58.60;101590.03;4897398;29;46501;-83
2021/06/12 08:18:42;;;;;;;;;9.75;7.75;;;;;20.49;58.95;101585.31;4896703;29;46109;-81
2021/06/12 08:21:07;;;;;;;;;13.75;12.75;;;;;20.39;58.75;101568.56;4897895;29;45628;-82
2021/06/12 08:23:33;;;;;;;;;12.25;11.00;;;;;20.44;58.88;101592.91;4896863;29;45575;-81
2021/06/12 08:25:58;;;;;;;;;12.50;11.00;;;;;20.43;58.91;101597.38;4897502;29;46509;-82
2021/06/12 08:28:24;;;;;;;;;11.25;10.75;;;;;20.14;59.15;101551.41;4897708;29;45587;-82
2021/06/12 08:30:49;;;;;;;;;14.25;12.00;;;;;20.35;59.08;101589.28;4880215;29;45765;-81
2021/06/12 08:33:18;;;;;;;;;12.50;11.50;;;;;20.30;59.16;101588.88;4897668;29;46007;-81
2021/06/12 08:35:43;;;;;;;;;11.75;11.25;;;;;20.27;59.06;101589.19;4897512;29;46264;-81
2021/06/12 08:38:09;;;;;;;;;13.25;12.75;;;;;20.03;59.57;101551.59;4897198;29;45810;-81
2021/06/12 08:43:59;;;;;;;;;13.00;11.50;;;;;20.07;60.04;101591.09;4896234;29;45718;-82
2021/06/12 08:46:29;;;;;;;;;15.25;14.50;;;;;19.99;59.90;101593.63;4897135;29;45618;-82
2021/06/12 08:48:55;;;;;;;;;18.25;15.00;;;;;20.07;59.62;101600.91;4897591;29;46398;-81
2021/06/12 08:51:21;;;;;;;;;19.00;16.75;;;;;20.05;59.32;101616.16;4897372;29;45591;-80
2021/06/12 08:53:50;;;;;;;;;17.50;16.50;;;;;19.96;59.92;101593.09;4897745;29;45591;-81
2021/06/12 08:56:15;;;;;;;;;13.25;12.50;;;;;19.92;59.90;101597.84;4896851;29;46409;-82
2021/06/12 08:58:41;;;;;;;;;19.75;16.50;;;;;19.89;59.89;101592.00;4897297;29;46320;-80
2021/06/12 09:01:06;;;;;;;;;21.00;18.50;;;;;20.03;59.59;101618.13;4897401;29;45932;-80
2021/06/12 09:03:40;;;;;;;;;16.75;15.25;;;;;19.91;60.00;101606.00;4880617;29;45696;-83
2021/06/12 09:06:06;;;;;;;;;18.25;17.00;;;;;20.06;59.71;101615.19;4896568;29;46945;-83
2021/06/12 09:08:36;;;;;;;;;19.25;17.00;;;;;20.17;59.66;101611.50;4896829;29;45735;-80
2021/06/12 09:14:23;;;;;;;;;20.25;15.00;;;;;20.31;59.65;101611.00;4896748;29;45719;-81
2021/06/12 09:16:48;;;;;;;;;16.50;15.25;;;;;20.20;59.19;101581.91;4896749;29;46428;-80
2021/06/12 09:19:15;;;;;;;;;21.50;18.00;;;;;20.32;59.59;101586.09;4879950;29;47014;-80
2021/06/12 09:21:51;;;;;;;;;20.75;17.50;;;;;20.44;59.27;101601.75;4897397;29;45683;-80
2021/06/12 09:24:27;;;;;;;;;24.75;21.75;;;;;20.45;59.85;101607.91;4897190;29;45586;-82
2021/06/12 09:26:58;;;;;;;;;13.75;13.50;;;;;20.48;59.76;101611.09;4896651;29;45729;-82
2021/06/12 09:29:47;;;;;;;;;18.25;16.50;;;;;20.51;59.25;101610.78;4896732;29;45700;-81
2021/06/12 09:32:14;;;;;;;;;17.50;15.50;;;;;20.56;59.49;101618.34;4857142;29;45799;-82
2021/06/12 09:34:40;;;;;;;;;17.25;14.75;;;;;20.51;59.28;101600.13;4857685;29;45945;-81
2021/06/12 09:37:10;;;;;;;;;15.00;14.75;;;;;20.64;59.40;101609.59;4860416;29;45728;-81
2021/06/12 09:39:36;;;;;;;;;15.00;14.25;;;;;20.64;59.05;101613.09;4861010;29;46190;-82
2021/06/12 09:42:01;;;;;;;;;19.25;17.25;;;;;20.54;59.13;101591.03;4862320;29;45691;-82
2021/06/12 09:44:33;;;;;;;;;21.75;18.00;;;;;20.53;59.11;101595.50;4862262;29;46134;-80
2021/06/12 09:47:00;;;;;;;;;18.50;17.00;;;;;20.67;59.18;101627.97;4863189;29;46362;-82
2021/06/12 09:49:34;;;;;;;;;20.00;16.25;;;;;20.64;59.27;101621.09;4865293;29;46107;-82
2021/06/12 09:52:15;;;;;;;;;18.75;14.25;;;;;20.66;58.96;101613.81;4864504;29;45684;-82
2021/06/12 09:54:43;;;;;;;;;16.25;14.75;;;;;20.71;59.11;101608.03;4848075;29;45862;-82
2021/06/12 09:57:15;;;;;;;;;22.00;17.50;;;;;20.64;58.94;101610.44;4863964;29;45654;-81
2021/06/12 09:59:49;;;;;;;;;21.25;19.00;;;;;20.73;58.77;101628.19;4863676;29;47446;-82
2021/06/12 10:02:40;;;;;;;;;20.00;17.50;;;;;20.76;58.49;101627.06;4863206;29;45848;-83
2021/06/12 10:05:08;;;;;;;;;21.00;17.50;;;;;20.79;58.64;101616.09;4844733;29;45674;-82
2021/06/12 10:07:34;;;;;;;;;23.50;16.75;;;;;20.69;58.75;101588.69;4859538;29;46496;-81
2021/06/12 10:10:03;;;;;;;;;18.75;15.75;;;;;20.87;58.73;101619.69;4892243;29;46433;-81
2021/06/12 10:12:29;;;;;;;;;18.75;15.50;;;;;20.89;58.83;101625.69;4901392;29;45865;-82
2021/06/12 10:14:56;;;;;;;;;16.50;13.50;;;;;20.68;58.62;101565.69;4883340;29;45771;-81
2021/06/12 10:17:23;;;;;;;;;15.25;13.75;;;;;20.85;58.28;101603.00;4899096;29;45951;-81
2021/06/12 10:19:53;;;;;;;;;14.75;13.50;;;;;20.99;58.49;101616.81;4866533;29;48073;-82
2021/06/12 10:22:19;;;;;;;;;18.00;15.75;;;;;21.01;58.41;101612.97;4901321;29;45782;-82
2021/06/12 10:24:44;;;;;;;;;19.00;15.25;;;;;20.87;58.35;101581.56;4899904;29;45662;-81
2021/06/12 10:27:11;;;;;;;;;18.25;15.50;;;;;21.06;58.30;101617.84;4882053;29;47240;-81
2021/06/12 10:29:37;;;;;;;;;16.75;13.00;;;;;21.10;58.12;101625.41;4899634;29;47083;-82
2021/06/12 10:32:05;;;;;;;;;15.50;14.50;;;;;21.13;58.06;101618.94;4899394;29;45732;-81
2021/06/12 10:34:32;;;;;;;;;16.25;14.00;;;;;21.14;57.98;101616.16;4899886;29;45730;-81
2021/06/12 10:37:06;;;;;;;;;19.25;15.00;;;;;21.18;58.11;101619.34;4898391;29;46818;-81
2021/06/12 10:39:38;;;;;;;;;14.75;13.50;;;;;21.16;57.81;101618.66;4899302;29;46348;-82
2021/06/12 10:42:26;;;;;;;;;12.75;12.75;;;;;21.26;58.13;101627.41;4899243;29;45741;-81
2021/06/12 10:44:54;;;;;;;;;16.25;13.50;;;;;21.28;57.85;101630.75;4898958;29;45670;-82
2021/06/12 10:47:43;;;;;;;;;11.25;10.50;;;;;21.17;57.86;101605.16;4898127;29;46539;-82
2021/06/12 10:50:45;;;;;;;;;12.50;9.00;;;;;21.37;57.94;101629.84;4899261;29;46065;-81
2021/06/12 10:53:33;;;;;;;;;12.25;10.75;;;;;21.45;57.56;101632.56;4859118;29;45850;-81
2021/06/12 10:56:02;;;;;;;;;10.25;8.75;;;;;21.39;57.23;101625.19;4858703;29;45753;-81
2021/06/12 10:58:31;;;;;;;;;10.75;9.75;;;;;21.50;57.08;101637.44;4859234;29;45818;-81
2021/06/12 11:01:16;;;;;;;;;8.75;7.75;;;;;21.52;57.15;101640.78;4858738;29;48462;-84
2021/06/12 11:03:54;;;;;;;;;12.00;11.25;;;;;21.38;56.79;101618.16;4858918;29;45751;-80
2021/06/12 11:06:58;;;;;;;;;11.00;11.00;;;;;21.55;56.59;101633.31;4858546;29;45915;-81
2021/06/12 11:09:36;;;;;;;;;11.00;9.75;;;;;21.58;56.79;101638.34;4787797;29;45862;-81
2021/06/12 11:12:23;;;;;;;;;12.00;10.00;;;;;21.64;56.59;101626.22;4804757;29;47006;-80
2021/06/12 11:15:01;;;;;;;;;13.25;10.75;;;;;21.77;56.67;101653.31;4807024;29;45805;-81
2021/06/12 11:17:26;;;;;;;;;10.50;9.75;;;;;21.82;56.77;101640.34;4806994;29;45823;-81
2021/06/12 11:19:54;;;;;;;;;10.75;10.25;;;;;21.90;56.18;101635.06;4806739;29;45848;-81
2021/06/12 11:22:36;;;;;;;;;11.75;10.50;;;;;21.98;56.12;101640.47;4807319;29;46213;-81
2021/06/12 11:28:28;;;;;;;;;10.00;9.00;;;;;22.01;55.48;101645.50;4840443;29;45675;-82
2021/06/12 11:31:26;;;;;;;;;8.25;7.75;;;;;22.01;55.96;101626.84;4840202;29;45891;-82
2021/06/12 11:34:11;;;;;;;;;9.00;8.25;;;;;22.14;55.62;101629.88;4840045;29;46029;-82
2021/06/12 11:36:38;;;;;;;;;10.00;10.00;;;;;22.09;55.40;101610.00;4839923;29;45765;-80
2021/06/12 11:39:07;;;;;;;;;9.00;8.50;;;;;22.26;55.31;101635.78;4824790;29;45743;-81
2021/06/12 11:44:54;;;;;;;;;7.00;7.00;;;;;22.34;54.69;101627.84;4897132;28;45978;-81
2021/06/12 11:47:27;;;;;;;;;8.00;7.50;;;;;22.31;54.94;101617.44;4898107;29;45674;-81
2021/06/12 11:49:55;;;;;;;;;9.25;8.75;;;;;22.36;54.54;101608.94;4881802;29;45813;-81
2021/06/12 11:52:21;;;;;;;;;9.00;7.75;;;;;22.48;54.59;101613.84;4897955;29;46569;-82
2021/06/12 11:54:48;;;;;;;;;6.00;5.75;;;;;22.47;54.85;101614.00;4898706;29;46000;-81
2021/06/12 12:00:39;;;;;;;;;8.50;8.25;;;;;22.66;54.45;101628.94;4900446;29;45813;-81
2021/06/12 12:03:11;;;;;;;;;12.00;10.00;;;;;22.71;54.06;101632.84;4882661;29;48007;-81
2021/06/12 12:05:39;;;;;;;;;10.00;8.50;;;;;22.70;54.15;101620.44;4883058;29;46064;-82
2021/06/12 12:08:18;;;;;;;;;9.75;7.50;;;;;22.74;53.91;101635.16;4899692;29;45994;-80
2021/06/12 12:10:52;;;;;;;;;8.25;7.75;;;;;22.75;54.05;101625.31;4904930;29;45766;-83
2021/06/12 12:13:37;;;;;;;;;10.50;9.00;;;;;22.77;53.72;101623.34;4904784;29;45599;-82
2021/06/12 12:16:08;;;;;;;;;7.50;6.75;;;;;22.79;53.86;101640.00;4886038;29;46911;-81
2021/06/12 12:18:44;;;;;;;;;8.50;8.00;;;;;22.71;53.58;101623.94;4904005;29;46087;-82
2021/06/12 12:21:10;;;;;;;;;11.75;11.00;;;;;22.76;53.87;101627.84;4902917;29;45640;-81
2021/06/12 12:23:37;;;;;;;;;10.75;10.00;;;;;22.74;53.75;101610.28;4881848;29;48697;-82
2021/06/12 12:26:12;;;;;;;;;10.00;9.00;;;;;22.71;54.13;101613.25;4879935;29;46675;-80
2021/06/12 12:28:54;;;;;;;;;13.75;13.75;;;;;22.82;53.97;101618.31;4880747;29;45809;-81
2021/06/12 12:31:23;;;;;;;;;13.50;11.50;;;;;22.84;53.74;101619.81;4880494;29;45829;-83
2021/06/12 12:33:50;;;;;;;;;10.25;8.50;;;;;22.95;53.97;101638.22;4897660;29;46245;-82
2021/06/12 12:36:16;;;;;;;;;13.25;11.00;;;;;22.95;53.24;101630.19;4879768;29;45969;-80
2021/06/12 12:38:43;;;;;;;;;11.75;10.25;;;;;23.02;54.00;101641.06;4897414;29;45594;-81